createdAt,value
2023-04-10T00:00:53.412Z,102475.19
2023-04-10T00:03:23.870Z,102480.66
2023-04-10T00:05:55.300Z,102470.84
2023-04-10T00:08:51.024Z,102465.88
2023-04-10T00:11:20.878Z,102456.78
2023-04-10T00:13:49.272Z,102452.44
2023-04-10T00:16:24.688Z,102450.59
2023-04-10T00:19:01.569Z,102436.56
2023-04-10T00:21:29.557Z,102441.47
2023-04-10T00:23:57.445Z,102430.72
2023-04-10T00:26:26.894Z,102436.97
2023-04-10T00:28:55.547Z,102428.22
2023-04-10T00:31:23.721Z,102429.06
2023-04-10T00:33:54.239Z,102430.94
2023-04-10T00:36:23.686Z,102437.13
2023-04-10T00:38:51.639Z,102424.78
2023-04-10T00:41:20.065Z,102429.47
2023-04-10T00:43:48.256Z,102438.41
2023-04-10T00:46:16.694Z,102436.59
2023-04-10T00:48:50.340Z,102428.44
2023-04-10T00:51:19.399Z,102421.28
2023-04-10T00:53:51.131Z,102423.94
2023-04-10T00:56:20.882Z,102426.41
2023-04-10T00:58:48.969Z,102423.75
2023-04-10T01:01:17.931Z,102423.00
2023-04-10T01:03:46.743Z,102418.63
2023-04-10T01:06:28.877Z,102420.25
2023-04-10T01:09:06.543Z,102420.31
2023-04-10T01:11:46.530Z,102415.88
2023-04-10T01:14:24.457Z,102417.47
2023-04-10T01:16:59.071Z,102421.91
2023-04-10T01:19:39.176Z,102416.56
2023-04-10T01:22:11.791Z,102418.53
2023-04-10T01:24:57.634Z,102414.63
2023-04-10T01:27:42.676Z,102413.88
2023-04-10T01:30:22.181Z,102406.75
2023-04-10T01:33:14.966Z,102414.88
2023-04-10T01:35:50.893Z,102415.72
2023-04-10T01:38:21.750Z,102414.69
2023-04-10T01:40:52.724Z,102409.94
2023-04-10T01:43:22.111Z,102408.25
2023-04-10T01:45:53.072Z,102399.56
2023-04-10T01:48:21.774Z,102409.13
2023-04-10T01:50:50.222Z,102405.44
2023-04-10T01:53:19.141Z,102392.03
2023-04-10T01:55:47.610Z,102397.56
2023-04-10T01:58:16.767Z,102395.84
2023-04-10T02:00:45.240Z,102394.78
2023-04-10T02:03:14.988Z,102386.81
2023-04-10T02:05:53.418Z,102383.09
2023-04-10T02:08:27.812Z,102381.44
2023-04-10T02:11:03.623Z,102382.28
2023-04-10T02:13:35.017Z,102375.28
2023-04-10T02:16:07.911Z,102367.47
2023-04-10T02:18:38.985Z,102362.09
2023-04-10T02:21:08.959Z,102362.81
2023-04-10T02:23:37.782Z,102366.56
2023-04-10T02:26:11.352Z,102363.28
2023-04-10T02:28:40.439Z,102364.06
2023-04-10T02:31:08.857Z,102360.25
2023-04-10T02:33:38.592Z,102358.72
2023-04-10T02:36:07.509Z,102366.75
2023-04-10T02:38:35.462Z,102357.81
2023-04-10T02:41:03.485Z,102363.91
2023-04-10T02:43:31.834Z,102356.03
2023-04-10T02:46:00.750Z,102356.81
2023-04-10T02:48:28.706Z,102356.66
2023-04-10T02:51:03.961Z,102358.31
2023-04-10T02:53:31.962Z,102354.06
2023-04-10T02:55:59.858Z,102347.75
2023-04-10T02:58:31.673Z,102342.66
2023-04-10T03:00:59.814Z,102340.13
2023-04-10T03:03:28.308Z,102341.19
2023-04-10T03:05:56.547Z,102335.94
2023-04-10T03:08:26.529Z,102331.56
2023-04-10T03:10:54.474Z,102325.44
2023-04-10T03:13:23.552Z,102325.34
2023-04-10T03:15:54.641Z,102320.19
2023-04-10T03:18:24.505Z,102317.38
2023-04-10T03:20:52.404Z,102317.31
2023-04-10T03:23:20.682Z,102312.94
2023-04-10T03:25:54.122Z,102314.91
2023-04-10T03:28:24.700Z,102310.31
2023-04-10T03:30:53.125Z,102313.06
2023-04-10T03:33:21.601Z,102309.66
2023-04-10T03:35:49.642Z,102301.50
2023-04-10T03:38:17.687Z,102301.84
2023-04-10T03:40:46.083Z,102301.75
2023-04-10T03:43:15.794Z,102295.31
2023-04-10T03:45:46.351Z,102291.94
2023-04-10T03:48:14.620Z,102292.97
2023-04-10T03:50:42.568Z,102285.91
2023-04-10T03:53:10.851Z,102292.19
2023-04-10T03:55:42.316Z,102300.13
2023-04-10T03:58:12.315Z,102294.13
2023-04-10T04:00:41.785Z,102286.94
2023-04-10T04:03:09.913Z,102284.06
2023-04-10T04:05:38.802Z,102285.19
2023-04-10T04:08:07.040Z,102281.47
2023-04-10T04:10:35.012Z,102278.91
2023-04-10T04:13:02.919Z,102289.31
2023-04-10T04:15:31.030Z,102285.63
2023-04-10T04:18:01.655Z,102281.94
2023-04-10T04:20:30.238Z,102283.91
2023-04-10T04:22:58.181Z,102287.38
2023-04-10T04:25:26.134Z,102284.63
2023-04-10T04:27:54.212Z,102282.72
2023-04-10T04:30:22.134Z,102289.00
2023-04-10T04:32:50.116Z,102284.56
2023-04-10T04:35:21.423Z,102282.91
2023-04-10T04:37:49.379Z,102282.19
2023-04-10T04:40:17.410Z,102279.53
2023-04-10T04:42:45.390Z,102287.50
2023-04-10T04:45:14.288Z,102285.56
2023-04-10T04:47:42.205Z,102280.16
2023-04-10T04:50:11.376Z,102283.78
2023-04-10T04:52:40.650Z,102278.47
2023-04-10T04:55:09.636Z,102284.63
2023-04-10T04:57:38.157Z,102278.31
2023-04-10T05:00:07.678Z,102284.56
2023-04-10T05:02:36.294Z,102282.69
2023-04-10T05:05:04.494Z,102285.19
2023-04-10T05:07:33.087Z,102287.00
2023-04-10T05:10:05.332Z,102290.47
2023-04-10T05:12:33.333Z,102286.84
2023-04-10T05:15:01.548Z,102284.78
2023-04-10T05:17:29.530Z,102291.97
2023-04-10T05:19:57.671Z,102287.53
2023-04-10T05:22:26.849Z,102289.28
2023-04-10T05:24:55.467Z,102289.16
2023-04-10T05:27:26.312Z,102284.50
2023-04-10T05:29:54.626Z,102279.16
2023-04-10T05:32:22.588Z,102279.66
2023-04-10T05:34:50.893Z,102285.66
2023-04-10T05:37:18.862Z,102282.97
2023-04-10T05:39:46.827Z,102281.13
2023-04-10T05:42:15.006Z,102276.91
2023-04-10T05:44:46.033Z,102277.44
2023-04-10T05:47:14.121Z,102275.19
2023-04-10T05:49:42.068Z,102274.59
2023-04-10T05:52:10.158Z,102272.50
2023-04-10T05:54:38.193Z,102268.75
2023-04-10T05:57:06.432Z,102273.81
2023-04-10T05:59:34.497Z,102274.50
2023-04-10T06:02:03.858Z,102265.25
2023-04-10T06:04:32.069Z,102268.34
2023-04-10T06:07:01.275Z,102266.44
2023-04-10T06:09:29.373Z,102262.75
2023-04-10T06:11:57.916Z,102257.63
2023-04-10T06:14:25.851Z,102255.44
2023-04-10T06:16:53.757Z,102248.59
2023-04-10T06:19:26.068Z,102248.88
2023-04-10T06:21:54.595Z,102242.72
2023-04-10T06:24:22.705Z,102236.16
2023-04-10T06:26:50.784Z,102226.16
2023-04-10T06:29:18.899Z,102225.09
2023-04-10T06:31:46.852Z,102223.53
2023-04-10T06:34:15.038Z,102214.53
2023-04-10T06:36:44.315Z,102217.31
2023-04-10T06:39:12.363Z,102223.84
2023-04-10T06:41:40.379Z,102210.47
2023-04-10T06:44:08.217Z,102218.63
2023-04-10T06:46:36.329Z,102222.13
2023-04-10T06:49:04.507Z,102212.38
2023-04-10T06:51:32.586Z,102216.97
2023-04-10T06:54:01.886Z,102215.44
2023-04-10T06:56:29.821Z,102209.56
2023-04-10T06:58:57.808Z,102214.59
2023-04-10T07:01:26.608Z,102202.81
2023-04-10T07:03:54.829Z,102207.59
2023-04-10T07:06:22.664Z,102205.72
2023-04-10T07:08:51.046Z,102210.59
2023-04-10T07:11:20.670Z,102203.44
2023-04-10T07:13:48.831Z,102209.34
2023-04-10T07:16:17.065Z,102194.44
2023-04-10T07:18:46.308Z,102201.97
2023-04-10T07:21:15.850Z,102200.22
2023-04-10T07:23:43.706Z,102193.81
2023-04-10T07:26:11.762Z,102184.78
2023-04-10T07:28:41.140Z,102176.22
2023-04-10T07:31:10.672Z,102186.84
2023-04-10T07:33:38.989Z,102172.72
2023-04-10T07:36:07.674Z,102167.38
2023-04-10T07:38:35.717Z,102174.44
2023-04-10T07:41:03.606Z,102161.38
2023-04-10T07:43:32.260Z,102163.16
2023-04-10T07:46:04.730Z,102162.84
2023-04-10T07:48:32.748Z,102160.00
2023-04-10T07:51:01.052Z,102158.56
2023-04-10T07:53:29.085Z,102153.34
2023-04-10T07:55:57.116Z,102151.03
2023-04-10T07:58:24.974Z,102148.34
2023-04-10T08:00:52.833Z,102152.66
2023-04-10T08:03:23.128Z,102151.91
2023-04-10T08:05:51.697Z,102142.63
2023-04-10T08:08:19.882Z,102147.81
2023-04-10T08:10:48.705Z,102143.06
2023-04-10T08:13:16.695Z,102141.44
2023-04-10T08:15:44.724Z,102142.50
2023-04-10T08:18:12.685Z,102142.03
2023-04-10T08:20:41.901Z,102135.69
2023-04-10T08:25:40.802Z,102126.63
2023-04-10T08:28:08.642Z,102133.66
2023-04-10T08:30:36.575Z,102129.19
2023-04-10T08:33:04.665Z,102121.28
2023-04-10T08:35:32.801Z,102122.41
2023-04-10T08:38:12.260Z,102118.72
2023-04-10T08:40:41.169Z,102118.03
2023-04-10T08:43:09.055Z,102112.75
2023-04-10T08:45:36.908Z,102105.13
2023-04-10T08:48:08.155Z,102099.13
2023-04-10T08:50:39.354Z,102105.09
2023-04-10T08:53:14.564Z,102099.84
2023-04-10T08:55:43.370Z,102094.59
2023-04-10T08:58:13.720Z,102092.31
2023-04-10T09:00:41.747Z,102083.09
2023-04-10T09:03:12.058Z,102082.06
2023-04-10T09:05:40.310Z,102074.75
2023-04-10T09:08:11.318Z,102077.19
2023-04-10T09:10:39.575Z,102075.69
2023-04-10T09:13:09.385Z,102074.34
2023-04-10T09:16:01.928Z,102058.66
2023-04-10T09:18:45.757Z,102061.81
2023-04-10T09:21:16.491Z,102060.53
2023-04-10T09:23:46.841Z,102048.13
2023-04-10T09:26:25.480Z,102049.81
2023-04-10T09:29:05.987Z,102040.97
2023-04-10T09:31:35.701Z,102044.88
2023-04-10T09:34:12.370Z,102039.00
2023-04-10T09:36:42.418Z,102023.97
2023-04-10T09:39:13.287Z,102029.38
2023-04-10T09:41:51.745Z,102014.91
2023-04-10T09:44:29.229Z,102004.25
2023-04-10T09:46:57.290Z,101994.84
2023-04-10T09:49:25.178Z,101998.47
2023-04-10T09:51:53.296Z,101981.13
2023-04-10T09:54:37.920Z,101976.81
2023-04-10T09:57:08.396Z,101978.28
2023-04-10T09:59:41.856Z,101968.59
2023-04-10T10:02:11.240Z,101962.22
2023-04-10T10:04:42.967Z,101946.41
2023-04-10T10:07:11.199Z,101943.81
2023-04-10T10:09:42.636Z,101938.69
2023-04-10T10:12:11.967Z,101930.13
2023-04-10T10:14:51.154Z,101943.03
2023-04-10T10:17:21.488Z,101931.53
2023-04-10T10:19:58.226Z,101922.06
2023-04-10T10:22:28.996Z,101918.41
2023-04-10T10:25:02.453Z,101921.03
2023-04-10T10:27:33.008Z,101900.22
2023-04-10T10:30:08.462Z,101917.88
2023-04-10T10:32:47.115Z,101904.19
2023-04-10T10:35:16.036Z,101900.56
2023-04-10T10:37:46.032Z,101887.28
2023-04-10T10:40:21.238Z,101875.81
2023-04-10T10:42:57.580Z,101873.19
2023-04-10T10:45:36.056Z,101873.94
2023-04-10T10:48:04.171Z,101871.25
2023-04-10T10:50:54.564Z,101865.19
2023-04-10T10:53:37.486Z,101859.13
2023-04-10T10:56:38.050Z,101862.66
2023-04-10T10:59:06.149Z,101856.78
2023-04-10T11:01:34.286Z,101841.69
2023-04-10T11:04:06.849Z,101836.34
2023-04-10T11:06:52.416Z,101821.44
2023-04-10T11:09:49.274Z,101812.03
2023-04-10T11:12:21.294Z,101821.78
2023-04-10T11:14:59.581Z,101815.91
2023-04-10T11:17:48.987Z,101809.75
2023-04-10T11:20:17.089Z,101802.00
2023-04-10T11:23:09.748Z,101797.94
2023-04-10T11:25:52.079Z,101790.72
2023-04-10T11:28:40.118Z,101787.53
2023-04-10T11:31:22.752Z,101781.72
2023-04-10T11:34:02.357Z,101772.50
2023-04-10T11:36:32.173Z,101770.53
2023-04-10T11:39:02.506Z,101756.78
2023-04-10T11:41:32.827Z,101752.59
2023-04-10T11:44:04.062Z,101744.75
2023-04-10T11:46:33.047Z,101743.28
2023-04-10T11:49:02.400Z,101741.03
2023-04-10T11:51:31.701Z,101736.03
2023-04-10T11:54:08.148Z,101733.06
2023-04-10T11:56:36.714Z,101736.91
2023-04-10T11:59:10.936Z,101718.56
2023-04-10T12:01:42.518Z,101728.13
2023-04-10T12:04:18.432Z,101712.00
2023-04-10T12:06:47.047Z,101710.97
2023-04-10T12:09:16.485Z,101698.56
2023-04-10T12:11:52.353Z,101702.97
2023-04-10T12:14:22.878Z,101683.47
2023-04-10T12:16:51.729Z,101694.44
2023-04-10T12:19:20.837Z,101686.31
2023-04-10T12:21:49.534Z,101681.22
2023-04-10T12:24:45.035Z,101680.56
2023-04-10T12:27:19.490Z,101673.09
2023-04-10T12:29:50.298Z,101673.50
2023-04-10T12:32:19.208Z,101679.88
2023-04-10T12:34:51.931Z,101668.28
2023-04-10T12:37:21.500Z,101675.75
2023-04-10T12:39:49.941Z,101653.44
2023-04-10T12:42:20.867Z,101657.25
2023-04-10T12:44:55.170Z,101643.44
2023-04-10T12:47:24.120Z,101647.91
2023-04-10T12:50:08.419Z,101635.22
2023-04-10T12:52:37.058Z,101635.78
2023-04-10T12:55:15.994Z,101648.91
2023-04-10T12:57:46.072Z,101635.56
2023-04-10T13:00:19.518Z,101626.88
2023-04-10T13:02:49.605Z,101622.56
2023-04-10T13:05:17.722Z,101611.56
2023-04-10T13:07:45.720Z,101613.47
2023-04-10T13:10:13.605Z,101615.41
2023-04-10T13:12:42.688Z,101609.69
2023-04-10T13:15:12.004Z,101600.16
2023-04-10T13:17:42.182Z,101587.88
2023-04-10T13:20:11.346Z,101593.59
2023-04-10T13:22:39.252Z,101585.47
2023-04-10T13:25:08.071Z,101577.09
2023-04-10T13:27:36.066Z,101567.94
2023-04-10T13:30:04.055Z,101561.56
2023-04-10T13:32:32.296Z,101557.97
2023-04-10T13:35:02.485Z,101551.31
2023-04-10T13:37:30.719Z,101548.53
2023-04-10T13:39:58.661Z,101530.31
2023-04-10T13:42:26.572Z,101528.44
2023-04-10T13:44:54.446Z,101520.97
2023-04-10T13:47:22.374Z,101514.00
2023-04-10T13:49:50.468Z,101514.66
2023-04-10T13:52:19.822Z,101513.59
2023-04-10T13:54:47.754Z,101507.28
2023-04-10T13:57:15.706Z,101500.03
2023-04-10T13:59:43.649Z,101491.78
2023-04-10T14:02:11.733Z,101482.53
2023-04-10T14:04:39.862Z,101473.19
2023-04-10T14:07:07.835Z,101479.94
2023-04-10T14:09:37.151Z,101466.50
2023-04-10T14:12:05.417Z,101458.84
2023-04-10T14:14:33.446Z,101457.72
2023-04-10T14:17:02.967Z,101449.25
2023-04-10T14:19:31.083Z,101446.72
2023-04-10T14:21:59.023Z,101447.78
2023-04-10T14:24:26.831Z,101432.94
2023-04-10T14:26:58.531Z,101433.53
2023-04-10T14:29:37.280Z,101425.22
2023-04-10T14:32:07.647Z,101425.53
2023-04-10T14:34:35.671Z,101427.66
2023-04-10T14:37:04.022Z,101418.28
2023-04-10T14:39:32.928Z,101407.34
2023-04-10T14:42:05.267Z,101395.09
2023-04-10T14:44:33.800Z,101374.63
2023-04-10T14:47:06.112Z,101383.56
2023-04-10T14:49:34.094Z,101384.25
2023-04-10T14:52:02.592Z,101365.09
2023-04-10T14:54:30.611Z,101354.78
2023-04-10T14:56:59.150Z,101351.50
2023-04-10T14:59:28.597Z,101340.69
2023-04-10T15:01:56.901Z,101346.56
2023-04-10T15:04:25.072Z,101329.28
2023-04-10T15:06:53.029Z,101322.44
2023-04-10T15:09:22.021Z,101325.84
2023-04-10T15:11:50.473Z,101313.16
2023-04-10T15:14:18.430Z,101301.59
2023-04-10T15:16:48.447Z,101305.72
2023-04-10T15:19:16.432Z,101298.28
2023-04-10T15:21:44.400Z,101299.38
2023-04-10T15:24:12.360Z,101297.09
2023-04-10T15:26:45.163Z,101286.28
2023-04-10T15:29:13.117Z,101280.69
2023-04-10T15:31:41.323Z,101279.84
2023-04-10T15:34:11.278Z,101273.16
2023-04-10T15:36:39.256Z,101275.25
2023-04-10T15:39:09.541Z,101266.84
2023-04-10T15:41:37.848Z,101259.28
2023-04-10T15:44:06.145Z,101239.22
2023-04-10T15:46:34.517Z,101237.19
2023-04-10T15:49:06.550Z,101231.09
2023-04-10T15:51:36.423Z,101222.78
2023-04-10T15:54:05.508Z,101210.44
2023-04-10T15:56:34.291Z,101224.91
2023-04-10T15:59:05.002Z,101212.25
2023-04-10T16:01:33.045Z,101210.28
2023-04-10T16:04:04.367Z,101207.81
2023-04-10T16:06:33.460Z,101200.25
2023-04-10T16:09:12.363Z,101191.97
2023-04-10T16:11:51.357Z,101180.81
2023-04-10T16:14:19.990Z,101184.19
2023-04-10T16:16:47.922Z,101188.13
2023-04-10T16:19:15.846Z,101173.69
2023-04-10T16:21:43.973Z,101171.38
2023-04-10T16:24:13.400Z,101169.56
2023-04-10T16:26:41.503Z,101157.84
2023-04-10T16:29:09.582Z,101169.13
2023-04-10T16:31:39.896Z,101150.63
2023-04-10T16:34:08.481Z,101149.59
2023-04-10T16:36:36.557Z,101146.34
2023-04-10T16:39:04.826Z,101142.81
2023-04-10T16:41:36.259Z,101136.75
2023-04-10T16:44:04.522Z,101130.63
2023-04-10T16:46:36.461Z,101134.81
2023-04-10T16:49:05.410Z,101126.25
2023-04-10T16:51:33.516Z,101120.81
2023-04-10T16:54:03.800Z,101115.22
2023-04-10T16:56:34.052Z,101102.91
2023-04-10T16:59:02.547Z,101097.94
2023-04-10T17:01:31.573Z,101087.13
2023-04-10T17:03:59.707Z,101093.50
2023-04-10T17:06:27.577Z,101086.06
2023-04-10T17:08:55.851Z,101090.47
2023-04-10T17:11:23.984Z,101084.50
2023-04-10T17:13:53.289Z,101071.00
2023-04-10T17:16:21.277Z,101070.16
2023-04-10T17:18:49.658Z,101063.16
2023-04-10T17:21:17.654Z,101065.88
2023-04-10T17:23:45.553Z,101060.09
2023-04-10T17:26:15.174Z,101056.72
2023-04-10T17:28:45.218Z,101060.94
2023-04-10T17:31:15.321Z,101068.50
2023-04-10T17:33:43.550Z,101065.94
2023-04-10T17:36:12.879Z,101067.50
2023-04-10T17:38:41.622Z,101060.72
2023-04-10T17:41:11.024Z,101065.25
2023-04-10T17:43:38.914Z,101060.22
2023-04-10T17:46:07.564Z,101050.25
2023-04-10T17:48:39.096Z,101047.03
2023-04-10T17:51:07.605Z,101050.00
2023-04-10T17:53:35.928Z,101043.28
2023-04-10T17:56:03.972Z,101043.94
2023-04-10T17:58:32.268Z,101023.63
2023-04-10T18:01:01.074Z,101023.41
2023-04-10T18:03:29.117Z,101019.03
2023-04-10T18:05:59.169Z,101022.13
2023-04-10T18:08:27.589Z,101024.81
2023-04-10T18:10:55.575Z,101024.59
2023-04-10T18:13:23.969Z,101024.84
2023-04-10T18:15:51.924Z,101021.28
2023-04-10T18:18:19.819Z,101014.91
2023-04-10T18:20:47.872Z,101021.03
2023-04-10T18:23:17.656Z,101012.47
2023-04-10T18:25:57.117Z,101015.03
2023-04-10T18:28:25.011Z,101017.28
2023-04-10T18:30:56.627Z,101006.88
2023-04-10T18:33:26.537Z,101008.00
2023-04-10T18:35:57.392Z,101002.34
2023-04-10T18:38:27.114Z,101007.38
2023-04-10T18:40:57.125Z,100993.16
2023-04-10T18:43:27.402Z,101004.81
2023-04-10T18:45:55.867Z,100998.69
2023-04-10T18:48:23.910Z,100998.31
2023-04-10T18:50:53.688Z,100985.00
2023-04-10T18:53:22.304Z,100993.94
2023-04-10T18:55:53.136Z,100982.03
2023-04-10T18:58:21.991Z,100982.31
2023-04-10T19:00:50.012Z,100981.31
2023-04-10T19:03:18.104Z,100979.47
2023-04-10T19:05:46.035Z,100972.50
2023-04-10T19:08:14.630Z,100963.00
2023-04-10T19:10:43.372Z,100963.38
2023-04-10T19:13:13.295Z,100951.50
2023-04-10T19:15:43.011Z,100947.94
2023-04-10T19:18:13.073Z,100948.91
2023-04-10T19:20:51.170Z,100951.53
2023-04-10T19:23:20.768Z,100953.22
2023-04-10T19:25:53.344Z,100953.09
2023-04-10T19:28:24.106Z,100949.16
2023-04-10T19:30:52.017Z,100954.22
2023-04-10T19:33:20.833Z,100942.94
2023-04-10T19:35:48.713Z,100919.47
2023-04-10T19:38:17.260Z,100922.03
2023-04-10T19:40:45.589Z,100920.09
2023-04-10T19:43:16.364Z,100917.53
2023-04-10T19:45:47.946Z,100921.44
2023-04-10T19:48:17.206Z,100912.25
2023-04-10T19:50:45.236Z,100895.13
2023-04-10T19:53:15.755Z,100897.34
2023-04-10T19:55:45.507Z,100889.91
2023-04-10T19:58:35.649Z,100889.31
2023-04-10T20:01:09.789Z,100866.31
2023-04-10T20:03:38.570Z,100876.25
2023-04-10T20:06:08.585Z,100870.88
2023-04-10T20:08:37.344Z,100871.97
2023-04-10T20:11:06.412Z,100870.59
2023-04-10T20:13:35.190Z,100865.09
2023-04-10T20:16:08.729Z,100866.41
2023-04-10T20:18:37.740Z,100862.63
2023-04-10T20:21:07.950Z,100857.47
2023-04-10T20:23:35.966Z,100848.94
2023-04-10T20:26:04.066Z,100822.13
2023-04-10T20:28:32.555Z,100817.00
2023-04-10T20:31:01.489Z,100806.25
2023-04-10T20:33:31.119Z,100791.94
2023-04-10T20:35:59.169Z,100789.53
2023-04-10T20:38:27.356Z,100786.81
2023-04-10T20:40:55.881Z,100775.94
2023-04-10T20:43:23.861Z,100769.47
2023-04-10T20:45:51.852Z,100764.25
2023-04-10T20:48:19.903Z,100759.13
2023-04-10T20:50:49.731Z,100755.25
2023-04-10T20:53:17.658Z,100742.69
2023-04-10T20:55:45.898Z,100744.19
2023-04-10T20:58:13.870Z,100737.44
2023-04-10T21:00:41.841Z,100730.50
2023-04-10T21:03:10.266Z,100723.88
2023-04-10T21:05:41.416Z,100718.88
2023-04-10T21:08:11.390Z,100720.00
2023-04-10T21:10:44.135Z,100704.44
2023-04-10T21:13:14.005Z,100712.53
2023-04-10T21:15:42.254Z,100703.13
2023-04-10T21:18:11.037Z,100701.16
2023-04-10T21:20:39.155Z,100700.22
2023-04-10T21:23:07.220Z,100697.63
2023-04-10T21:25:37.656Z,100698.25
2023-04-10T21:28:05.876Z,100701.44
2023-04-10T21:30:34.042Z,100696.66
2023-04-10T21:33:02.573Z,100703.50
2023-04-10T21:35:30.669Z,100711.16
2023-04-10T21:38:04.978Z,100719.16
2023-04-10T21:40:34.593Z,100721.13
2023-04-10T21:43:04.915Z,100721.91
2023-04-10T21:45:34.801Z,100725.88
2023-04-10T21:48:04.292Z,100726.56
2023-04-10T21:50:32.483Z,100731.41
2023-04-10T21:53:00.970Z,100736.00
2023-04-10T21:55:33.112Z,100732.47
2023-04-10T21:58:01.209Z,100730.16
2023-04-10T22:00:31.199Z,100723.22
2023-04-10T22:05:29.376Z,100723.47
2023-04-10T22:07:58.681Z,100716.88
2023-04-10T22:10:27.366Z,100721.78
2023-04-10T22:12:55.401Z,100725.53
2023-04-10T22:15:23.554Z,100720.41
2023-04-10T22:17:53.077Z,100729.28
2023-04-10T22:20:21.018Z,100727.25
2023-04-10T22:22:49.341Z,100727.13
2023-04-10T22:25:17.735Z,100719.81
2023-04-10T22:27:45.811Z,100740.16
2023-04-10T22:30:14.508Z,100748.56
2023-04-10T22:32:42.959Z,100738.16
2023-04-10T22:35:12.364Z,100746.34
2023-04-10T22:37:40.974Z,100747.28
2023-04-10T22:40:10.493Z,100727.84
2023-04-10T22:42:38.530Z,100721.41
2023-04-10T22:45:07.567Z,100722.34
2023-04-10T22:47:35.695Z,100717.75
2023-04-10T22:50:03.997Z,100716.91
2023-04-10T22:52:33.422Z,100719.63
2023-04-10T22:55:01.497Z,100714.28
2023-04-10T22:57:29.658Z,100716.16
2023-04-10T23:00:00.036Z,100692.59
2023-04-10T23:02:29.031Z,100681.00
2023-04-10T23:04:57.731Z,100676.78
2023-04-10T23:07:25.953Z,100668.75
2023-04-10T23:09:55.504Z,100662.31
2023-04-10T23:12:23.539Z,100666.59
2023-04-10T23:14:51.582Z,100665.91
2023-04-10T23:17:20.903Z,100657.47
2023-04-10T23:19:48.927Z,100653.72
2023-04-10T23:22:16.895Z,100642.28
2023-04-10T23:24:45.884Z,100631.16
2023-04-10T23:27:15.335Z,100636.56
2023-04-10T23:29:43.490Z,100619.88
2023-04-10T23:32:11.549Z,100627.66
2023-04-10T23:34:40.332Z,100617.25
2023-04-10T23:37:08.682Z,100622.53
2023-04-10T23:39:37.417Z,100607.97
2023-04-10T23:42:06.056Z,100609.97
2023-04-10T23:44:36.026Z,100599.94
2023-04-10T23:47:04.144Z,100595.22
2023-04-10T23:49:34.220Z,100589.94
2023-04-10T23:52:02.209Z,100579.19
2023-04-10T23:54:30.898Z,100578.63
2023-04-10T23:56:59.063Z,100580.00
2023-04-10T23:59:27.267Z,100567.47
